Petrified Forest Natl Park, Arizona
Current Conditions -  °F | °C
As of 1:54 PM on Saturday 25 Oct 2014 (Local Time) from KSJN Reporting Station
Clear Clear  
Wind Chill: 79°   Ceiling: Unl
Heat Index: 79°   Visibility: 10mi
Dew Point: 36°   Wind: 17mph
Humidity: 21%   Direction: 250°WSW
Pressure: 30.23"   Gusts: 21mph
Location:  34.92°N, 109.82°W
Report Text: KSJN 252054Z AUTO 25015G18KT 10SM CLR 26/02 A3023 RMK AO2 SLP160 T02610022 56024
Loading
Personal Weather Stations






























Interactive Weather Map
Tropical Storm Tracking
New forecast layout! Learn more

10-Day Weather Forecast

Advertisements
Track Severe Weather on mobile